RYR1HV LGKR-EPMO
Flight info
| Callsign | RYR1HV |
|---|---|
| Flight time | N/A |
| Altitude | 38000 |
| Route | NIKRO DCT OVVER DCT UNDER DCT ALELU DCT RISTU DCT PARAK/N0444F370 DCT KEKED DCT PODAN DCT MONOV/N0446F380 L621 LIMVI |
| Aircraft | B738/M-SDE3FGILRWY/SB1 |
Departure
| Time | N/A |
|---|---|
| Airport | Corfu Ioannis Kapodistrias International Airport (LGKR) |
Arrival
| Time | 2026-04-21 13:57 |
|---|---|
| Airport | Warsaw Modlin Airport (EPMO) |
| Time | Latitude | Longitude | Altitude | Speed | Heading |
|---|---|---|---|---|---|
| 2026-04-21 11:55 | 40.77121 | 19.98483 | 34834 ft | 423 kts | 348° |
| 2026-04-21 11:55 | 40.80055 | 19.98120 | 35103 ft | 423 kts | 348° |
| 2026-04-21 11:56 | 40.82986 | 19.97757 | 35389 ft | 423 kts | 348° |
| 2026-04-21 11:56 | 40.85912 | 19.97395 | 35711 ft | 422 kts | 348° |
| 2026-04-21 11:56 | 40.88832 | 19.97034 | 36008 ft | 421 kts | 348° |
| 2026-04-21 11:56 | 40.91747 | 19.96672 | 36243 ft | 421 kts | 348° |
| 2026-04-21 11:57 | 40.94668 | 19.96309 | 36459 ft | 421 kts | 348° |
| 2026-04-21 11:57 | 40.97584 | 19.95947 | 36713 ft | 421 kts | 348° |
| 2026-04-21 11:57 | 41.00493 | 19.95586 | 36978 ft | 420 kts | 348° |
| 2026-04-21 11:57 | 41.03399 | 19.95224 | 37204 ft | 420 kts | 348° |
| 2026-04-21 11:58 | 41.06310 | 19.94862 | 37412 ft | 420 kts | 348° |
| 2026-04-21 11:58 | 41.09223 | 19.94546 | 37655 ft | 421 kts | 349° |
| 2026-04-21 11:58 | 41.12149 | 19.94329 | 37925 ft | 421 kts | 351° |
| 2026-04-21 11:58 | 41.15086 | 19.94151 | 37943 ft | 425 kts | 351° |
| 2026-04-21 11:59 | 41.21009 | 19.93806 | 37950 ft | 426 kts | 351° |
| 2026-04-21 11:59 | 41.26889 | 19.93442 | 37972 ft | 420 kts | 350° |
| 2026-04-21 12:00 | 41.32682 | 19.93057 | 37974 ft | 420 kts | 350° |
| 2026-04-21 12:00 | 41.38516 | 19.92659 | 37956 ft | 420 kts | 350° |
| 2026-04-21 12:01 | 41.44352 | 19.92262 | 37967 ft | 419 kts | 350° |
| 2026-04-21 12:01 | 41.50190 | 19.91863 | 37963 ft | 421 kts | 350° |
| 2026-04-21 12:02 | 41.58968 | 19.91263 | 37963 ft | 421 kts | 350° |
| 2026-04-21 12:03 | 41.64832 | 19.90861 | 37968 ft | 423 kts | 350° |
| 2026-04-21 12:03 | 41.70667 | 19.90461 | 37964 ft | 424 kts | 350° |
| 2026-04-21 12:04 | 41.76558 | 19.90058 | 37961 ft | 424 kts | 350° |
| 2026-04-21 12:04 | 41.82447 | 19.89653 | 37972 ft | 424 kts | 350° |
| 2026-04-21 12:05 | 41.88347 | 19.89246 | 37991 ft | 424 kts | 350° |
| 2026-04-21 12:05 | 41.94203 | 19.88842 | 37989 ft | 425 kts | 350° |
| 2026-04-21 12:06 | 42.00112 | 19.88433 | 37989 ft | 425 kts | 350° |
| 2026-04-21 12:06 | 42.06030 | 19.88024 | 37985 ft | 425 kts | 350° |
| 2026-04-21 12:07 | 42.11973 | 19.87609 | 37976 ft | 430 kts | 350° |
| 2026-04-21 12:07 | 42.17962 | 19.87192 | 37989 ft | 431 kts | 350° |
| 2026-04-21 12:08 | 42.23915 | 19.86779 | 37991 ft | 431 kts | 350° |
| 2026-04-21 12:08 | 42.29882 | 19.86365 | 37989 ft | 428 kts | 350° |
| 2026-04-21 12:09 | 42.35793 | 19.85953 | 37991 ft | 422 kts | 350° |
| 2026-04-21 12:09 | 42.41629 | 19.85543 | 37988 ft | 418 kts | 350° |
| 2026-04-21 12:10 | 42.47440 | 19.85135 | 38027 ft | 419 kts | 351° |
| 2026-04-21 12:10 | 42.53377 | 19.85325 | 38022 ft | 433 kts | 356° |
| 2026-04-21 12:11 | 42.59373 | 19.85856 | 37986 ft | 435 kts | 357° |
| 2026-04-21 12:11 | 42.65424 | 19.86384 | 37985 ft | 438 kts | 356° |
| 2026-04-21 12:12 | 42.71498 | 19.86870 | 38002 ft | 436 kts | 356° |
| 2026-04-21 12:12 | 42.77548 | 19.87334 | 37994 ft | 434 kts | 356° |
| 2026-04-21 12:13 | 42.83554 | 19.87789 | 38006 ft | 431 kts | 356° |
| 2026-04-21 12:13 | 42.89528 | 19.88241 | 38011 ft | 429 kts | 356° |
| 2026-04-21 12:14 | 42.95465 | 19.88692 | 38023 ft | 425 kts | 356° |
| 2026-04-21 12:14 | 43.01359 | 19.89140 | 38022 ft | 423 kts | 356° |
| 2026-04-21 12:15 | 43.06232 | 19.89511 | 38022 ft | 421 kts | 356° |
| 2026-04-21 12:15 | 43.12080 | 19.89958 | 37998 ft | 419 kts | 356° |
| 2026-04-21 12:16 | 43.18886 | 19.90472 | 38033 ft | 426 kts | 356° |
| 2026-04-21 12:16 | 43.23868 | 19.90849 | 38047 ft | 431 kts | 356° |
| 2026-04-21 12:17 | 43.29850 | 19.91309 | 38043 ft | 434 kts | 356° |
| 2026-04-21 12:17 | 43.35884 | 19.91776 | 38031 ft | 436 kts | 356° |
| 2026-04-21 12:18 | 43.41995 | 19.92249 | 38030 ft | 436 kts | 356° |
| 2026-04-21 12:18 | 43.48047 | 19.92720 | 38043 ft | 435 kts | 356° |
| 2026-04-21 12:19 | 43.54092 | 19.93187 | 38035 ft | 435 kts | 356° |
| 2026-04-21 12:19 | 43.60095 | 19.93653 | 38024 ft | 435 kts | 356° |
| 2026-04-21 12:20 | 43.66128 | 19.94122 | 38045 ft | 434 kts | 356° |
| 2026-04-21 12:20 | 43.72151 | 19.94591 | 38039 ft | 434 kts | 356° |
| 2026-04-21 12:21 | 43.78184 | 19.95062 | 38028 ft | 433 kts | 356° |
| 2026-04-21 12:21 | 43.84194 | 19.95532 | 38034 ft | 433 kts | 356° |
| 2026-04-21 12:22 | 43.90199 | 19.96003 | 38047 ft | 432 kts | 356° |
| 2026-04-21 12:22 | 43.96207 | 19.96475 | 38023 ft | 432 kts | 356° |
| 2026-04-21 12:23 | 44.02208 | 19.96947 | 38049 ft | 432 kts | 357° |
| 2026-04-21 12:23 | 44.08220 | 19.97420 | 38038 ft | 433 kts | 357° |
| 2026-04-21 12:24 | 44.14234 | 19.97895 | 38042 ft | 433 kts | 357° |
| 2026-04-21 12:24 | 44.20252 | 19.98372 | 38051 ft | 434 kts | 357° |
| 2026-04-21 12:25 | 44.26282 | 19.98850 | 38042 ft | 434 kts | 357° |
| 2026-04-21 12:25 | 44.32315 | 19.99330 | 38035 ft | 434 kts | 357° |
| 2026-04-21 12:26 | 44.38310 | 19.99807 | 38033 ft | 434 kts | 357° |
| 2026-04-21 12:26 | 44.44349 | 20.00289 | 38038 ft | 435 kts | 357° |
| 2026-04-21 12:27 | 44.50392 | 20.00772 | 38036 ft | 435 kts | 357° |
| 2026-04-21 12:27 | 44.56433 | 20.01257 | 38041 ft | 435 kts | 357° |
| 2026-04-21 12:28 | 44.62476 | 20.01742 | 38059 ft | 435 kts | 357° |
| 2026-04-21 12:28 | 44.68540 | 20.02230 | 38048 ft | 437 kts | 357° |
| 2026-04-21 12:29 | 44.74621 | 20.02721 | 38043 ft | 438 kts | 357° |
| 2026-04-21 12:29 | 44.80704 | 20.03101 | 38042 ft | 437 kts | 355° |
| 2026-04-21 12:30 | 44.86783 | 20.03351 | 38044 ft | 437 kts | 355° |
| 2026-04-21 12:30 | 44.92871 | 20.03602 | 38045 ft | 438 kts | 355° |
| 2026-04-21 12:31 | 44.98964 | 20.03872 | 38053 ft | 438 kts | 355° |
| 2026-04-21 12:31 | 45.05059 | 20.04152 | 38039 ft | 439 kts | 355° |
| 2026-04-21 12:32 | 45.11121 | 20.04434 | 38040 ft | 439 kts | 355° |
| 2026-04-21 12:32 | 45.17229 | 20.04717 | 38032 ft | 439 kts | 355° |
| 2026-04-21 12:33 | 45.23350 | 20.05001 | 38038 ft | 440 kts | 356° |
| 2026-04-21 12:33 | 45.29480 | 20.05287 | 38033 ft | 441 kts | 356° |
| 2026-04-21 12:34 | 45.35607 | 20.05573 | 38030 ft | 440 kts | 356° |
| 2026-04-21 12:34 | 45.41731 | 20.05860 | 38040 ft | 440 kts | 356° |
| 2026-04-21 12:35 | 45.47848 | 20.06146 | 38026 ft | 440 kts | 356° |
| 2026-04-21 12:35 | 45.53954 | 20.06433 | 38024 ft | 439 kts | 356° |
| 2026-04-21 12:36 | 45.60053 | 20.06720 | 38056 ft | 438 kts | 356° |
| 2026-04-21 12:36 | 45.66144 | 20.07007 | 38034 ft | 438 kts | 356° |
| 2026-04-21 12:37 | 45.72196 | 20.07293 | 38023 ft | 438 kts | 356° |
| 2026-04-21 12:37 | 45.78285 | 20.07581 | 38017 ft | 438 kts | 356° |
| 2026-04-21 12:38 | 45.84374 | 20.07869 | 38021 ft | 438 kts | 356° |
| 2026-04-21 12:38 | 45.90467 | 20.08159 | 38027 ft | 438 kts | 356° |
| 2026-04-21 12:39 | 45.96563 | 20.08450 | 38027 ft | 438 kts | 356° |
| 2026-04-21 12:39 | 46.02665 | 20.08741 | 38044 ft | 439 kts | 357° |
| 2026-04-21 12:40 | 46.08785 | 20.09034 | 38032 ft | 441 kts | 357° |
| 2026-04-21 12:40 | 46.14922 | 20.09363 | 38025 ft | 443 kts | 0° |
| 2026-04-21 12:41 | 46.20981 | 20.11399 | 38035 ft | 452 kts | 13° |
| 2026-04-21 12:41 | 46.26943 | 20.14377 | 38036 ft | 454 kts | 14° |
| 2026-04-21 12:42 | 46.32911 | 20.17377 | 38029 ft | 454 kts | 14° |
| 2026-04-21 12:42 | 46.38887 | 20.20330 | 38026 ft | 454 kts | 14° |
| 2026-04-21 12:43 | 46.44871 | 20.23261 | 38033 ft | 454 kts | 14° |
| 2026-04-21 12:43 | 46.50812 | 20.26169 | 38028 ft | 453 kts | 14° |
| 2026-04-21 12:44 | 46.56782 | 20.29100 | 38028 ft | 453 kts | 14° |
| 2026-04-21 12:44 | 46.62745 | 20.32035 | 38044 ft | 452 kts | 14° |
| 2026-04-21 12:45 | 46.68702 | 20.34974 | 38032 ft | 452 kts | 14° |
| 2026-04-21 12:45 | 46.74640 | 20.37911 | 38028 ft | 451 kts | 14° |
| 2026-04-21 12:46 | 46.80582 | 20.40857 | 38044 ft | 450 kts | 14° |
| 2026-04-21 12:46 | 46.86511 | 20.43803 | 38031 ft | 450 kts | 14° |
| 2026-04-21 12:47 | 46.92424 | 20.46748 | 38033 ft | 449 kts | 14° |
| 2026-04-21 12:47 | 46.98354 | 20.49708 | 38032 ft | 449 kts | 14° |
| 2026-04-21 12:48 | 47.04267 | 20.52668 | 38033 ft | 449 kts | 14° |
| 2026-04-21 12:48 | 47.10136 | 20.55611 | 38036 ft | 449 kts | 15° |
| 2026-04-21 12:49 | 47.16039 | 20.58579 | 38042 ft | 449 kts | 15° |
| 2026-04-21 12:49 | 47.21951 | 20.61558 | 38055 ft | 449 kts | 15° |
| 2026-04-21 12:50 | 47.27862 | 20.64544 | 38038 ft | 449 kts | 15° |
| 2026-04-21 12:50 | 47.33781 | 20.67541 | 38038 ft | 450 kts | 15° |
| 2026-04-21 12:51 | 47.39695 | 20.70542 | 38039 ft | 450 kts | 15° |
| 2026-04-21 12:51 | 47.45614 | 20.73553 | 38044 ft | 450 kts | 15° |
| 2026-04-21 12:52 | 47.51529 | 20.76570 | 38041 ft | 450 kts | 15° |
| 2026-04-21 12:52 | 47.57442 | 20.79593 | 38043 ft | 449 kts | 15° |
| 2026-04-21 12:53 | 47.63346 | 20.82619 | 38057 ft | 449 kts | 15° |
| 2026-04-21 12:53 | 47.69247 | 20.85650 | 38041 ft | 449 kts | 15° |
| 2026-04-21 12:54 | 47.75139 | 20.88683 | 38043 ft | 448 kts | 15° |
| 2026-04-21 12:54 | 47.81025 | 20.91721 | 38042 ft | 447 kts | 15° |
| 2026-04-21 12:55 | 47.86901 | 20.94761 | 38048 ft | 447 kts | 16° |
| 2026-04-21 12:55 | 47.92776 | 20.97808 | 38045 ft | 446 kts | 16° |
| 2026-04-21 12:56 | 47.98599 | 21.00835 | 38046 ft | 446 kts | 16° |
| 2026-04-21 12:56 | 48.04453 | 21.03885 | 38061 ft | 445 kts | 16° |
| 2026-04-21 12:57 | 48.10298 | 21.06938 | 38056 ft | 445 kts | 16° |
| 2026-04-21 12:57 | 48.16151 | 21.10003 | 38058 ft | 446 kts | 16° |
| 2026-04-21 12:58 | 48.22007 | 21.13077 | 38046 ft | 445 kts | 16° |
| 2026-04-21 12:58 | 48.27852 | 21.16152 | 38054 ft | 445 kts | 16° |
| 2026-04-21 12:59 | 48.33694 | 21.19234 | 38056 ft | 445 kts | 16° |
| 2026-04-21 12:59 | 48.39532 | 21.22321 | 38067 ft | 445 kts | 16° |
| 2026-04-21 13:00 | 48.45386 | 21.25424 | 38063 ft | 446 kts | 16° |
| 2026-04-21 13:00 | 48.51243 | 21.28512 | 38063 ft | 445 kts | 14° |
| 2026-04-21 13:01 | 48.57276 | 21.30113 | 38086 ft | 439 kts | 3° |
| 2026-04-21 13:01 | 48.63358 | 21.31010 | 38082 ft | 439 kts | 2° |
| 2026-04-21 13:02 | 48.69430 | 21.31928 | 38075 ft | 439 kts | 3° |
| 2026-04-21 13:02 | 48.78534 | 21.33402 | 38074 ft | 439 kts | 4° |
| 2026-04-21 13:03 | 48.84606 | 21.34407 | 38073 ft | 439 kts | 4° |
| 2026-04-21 13:03 | 48.90678 | 21.35415 | 38083 ft | 439 kts | 4° |
| 2026-04-21 13:04 | 48.96762 | 21.36426 | 38077 ft | 440 kts | 4° |
| 2026-04-21 13:04 | 49.02845 | 21.37439 | 38079 ft | 440 kts | 4° |
| 2026-04-21 13:05 | 49.08933 | 21.38455 | 38072 ft | 440 kts | 4° |
| 2026-04-21 13:05 | 49.14991 | 21.39469 | 38086 ft | 440 kts | 4° |
| 2026-04-21 13:06 | 49.21079 | 21.40490 | 38083 ft | 440 kts | 4° |
| 2026-04-21 13:06 | 49.26152 | 21.41342 | 38080 ft | 440 kts | 4° |
| 2026-04-21 13:07 | 49.32241 | 21.42368 | 38087 ft | 440 kts | 4° |
| 2026-04-21 13:07 | 49.38329 | 21.43397 | 38086 ft | 440 kts | 4° |
| 2026-04-21 13:08 | 49.44316 | 21.45416 | 38090 ft | 443 kts | 18° |
| 2026-04-21 13:08 | 49.50087 | 21.48756 | 38089 ft | 443 kts | 19° |
| 2026-04-21 13:09 | 49.55856 | 21.52148 | 38099 ft | 443 kts | 18° |
| 2026-04-21 13:09 | 49.61631 | 21.55496 | 38089 ft | 443 kts | 18° |
| 2026-04-21 13:10 | 49.67371 | 21.58797 | 38091 ft | 443 kts | 18° |
| 2026-04-21 13:10 | 49.73145 | 21.62118 | 38089 ft | 442 kts | 18° |
| 2026-04-21 13:11 | 49.78914 | 21.65444 | 38103 ft | 442 kts | 19° |
| 2026-04-21 13:11 | 49.84678 | 21.68776 | 38094 ft | 442 kts | 19° |
| 2026-04-21 13:12 | 49.90442 | 21.72119 | 38099 ft | 441 kts | 19° |
| 2026-04-21 13:12 | 49.96173 | 21.75450 | 38099 ft | 441 kts | 19° |
| 2026-04-21 13:13 | 50.01923 | 21.78801 | 38105 ft | 441 kts | 19° |
| 2026-04-21 13:13 | 50.07676 | 21.82162 | 38102 ft | 441 kts | 19° |
| 2026-04-21 13:14 | 50.13419 | 21.85527 | 38103 ft | 441 kts | 19° |
| 2026-04-21 13:14 | 50.19170 | 21.88904 | 38108 ft | 441 kts | 19° |
| 2026-04-21 13:15 | 50.24901 | 21.92279 | 38104 ft | 440 kts | 19° |
| 2026-04-21 13:15 | 50.30636 | 21.95664 | 38099 ft | 440 kts | 19° |
| 2026-04-21 13:16 | 50.36327 | 21.99032 | 38097 ft | 440 kts | 19° |
| 2026-04-21 13:16 | 50.42051 | 22.02429 | 38105 ft | 439 kts | 19° |
| 2026-04-21 13:17 | 50.47771 | 22.05831 | 38099 ft | 439 kts | 19° |
| 2026-04-21 13:17 | 50.53489 | 22.09242 | 38091 ft | 439 kts | 19° |
| 2026-04-21 13:18 | 50.59185 | 22.12649 | 38097 ft | 438 kts | 19° |
| 2026-04-21 13:18 | 50.62046 | 22.14363 | 37759 ft | 443 kts | 19° |
| 2026-04-21 13:18 | 50.64917 | 22.16085 | 37450 ft | 438 kts | 20° |
| 2026-04-21 13:19 | 50.67749 | 22.17787 | 36990 ft | 434 kts | 20° |
| 2026-04-21 13:19 | 50.70554 | 22.19475 | 36624 ft | 429 kts | 20° |
| 2026-04-21 13:19 | 50.73332 | 22.21148 | 36241 ft | 425 kts | 20° |
| 2026-04-21 13:19 | 50.76081 | 22.22806 | 35869 ft | 421 kts | 20° |
| 2026-04-21 13:20 | 50.78808 | 22.24453 | 35479 ft | 418 kts | 21° |
| 2026-04-21 13:20 | 50.81516 | 22.26090 | 35098 ft | 415 kts | 21° |
| 2026-04-21 13:20 | 50.84201 | 22.27715 | 34719 ft | 412 kts | 21° |
| 2026-04-21 13:20 | 50.86864 | 22.29329 | 34340 ft | 409 kts | 21° |
| 2026-04-21 13:21 | 50.89516 | 22.30939 | 33930 ft | 406 kts | 21° |
| 2026-04-21 13:21 | 50.92110 | 22.32514 | 33499 ft | 403 kts | 22° |
| 2026-04-21 13:21 | 50.94716 | 22.34098 | 33090 ft | 399 kts | 22° |
| 2026-04-21 13:21 | 50.97337 | 22.35492 | 32673 ft | 397 kts | 11° |
| 2026-04-21 13:22 | 51.00080 | 22.35603 | 32340 ft | 395 kts | 355° |
| 2026-04-21 13:22 | 51.02757 | 22.34530 | 31827 ft | 400 kts | 339° |
| 2026-04-21 13:22 | 51.05223 | 22.32496 | 31475 ft | 399 kts | 334° |
| 2026-04-21 13:22 | 51.07610 | 22.30272 | 31065 ft | 397 kts | 333° |
| 2026-04-21 13:23 | 51.09970 | 22.28018 | 30695 ft | 394 kts | 333° |
| 2026-04-21 13:23 | 51.12315 | 22.25789 | 30340 ft | 390 kts | 334° |
| 2026-04-21 13:23 | 51.14645 | 22.23599 | 29943 ft | 387 kts | 335° |
| 2026-04-21 13:23 | 51.16962 | 22.21442 | 29549 ft | 382 kts | 335° |
| 2026-04-21 13:24 | 51.19253 | 22.19321 | 29182 ft | 378 kts | 335° |
| 2026-04-21 13:24 | 51.21513 | 22.17232 | 28817 ft | 373 kts | 335° |
| 2026-04-21 13:24 | 51.23750 | 22.15165 | 28445 ft | 369 kts | 335° |
| 2026-04-21 13:24 | 51.25963 | 22.13117 | 28086 ft | 365 kts | 335° |
| 2026-04-21 13:25 | 51.28155 | 22.11084 | 27726 ft | 362 kts | 335° |
| 2026-04-21 13:25 | 51.30296 | 22.09098 | 27379 ft | 359 kts | 335° |
| 2026-04-21 13:25 | 51.32446 | 22.07105 | 27013 ft | 356 kts | 335° |
| 2026-04-21 13:25 | 51.34582 | 22.05123 | 26657 ft | 353 kts | 335° |
| 2026-04-21 13:26 | 51.36697 | 22.03159 | 26307 ft | 350 kts | 335° |
| 2026-04-21 13:26 | 51.38797 | 22.01205 | 25977 ft | 347 kts | 335° |
| 2026-04-21 13:26 | 51.40875 | 21.99270 | 25641 ft | 345 kts | 335° |
| 2026-04-21 13:26 | 51.42947 | 21.97351 | 25302 ft | 342 kts | 335° |
| 2026-04-21 13:27 | 51.45011 | 21.95470 | 24969 ft | 340 kts | 335° |
| 2026-04-21 13:27 | 51.47069 | 21.93596 | 24649 ft | 338 kts | 335° |
| 2026-04-21 13:27 | 51.49107 | 21.91735 | 24313 ft | 336 kts | 335° |
| 2026-04-21 13:27 | 51.51131 | 21.89889 | 23986 ft | 334 kts | 335° |
| 2026-04-21 13:28 | 51.53150 | 21.88059 | 23656 ft | 332 kts | 335° |
| 2026-04-21 13:28 | 51.55135 | 21.86261 | 23280 ft | 330 kts | 335° |
| 2026-04-21 13:28 | 51.57129 | 21.84452 | 22931 ft | 328 kts | 335° |
| 2026-04-21 13:28 | 51.59109 | 21.82653 | 22600 ft | 325 kts | 335° |
| 2026-04-21 13:29 | 51.61072 | 21.80867 | 22289 ft | 322 kts | 335° |
| 2026-04-21 13:29 | 51.63017 | 21.79095 | 21959 ft | 320 kts | 335° |
| 2026-04-21 13:29 | 51.64947 | 21.77336 | 21627 ft | 318 kts | 335° |
| 2026-04-21 13:29 | 51.66862 | 21.75588 | 21315 ft | 315 kts | 335° |
| 2026-04-21 13:30 | 51.68765 | 21.73851 | 21012 ft | 313 kts | 335° |
| 2026-04-21 13:30 | 51.70658 | 21.72120 | 20700 ft | 311 kts | 335° |
| 2026-04-21 13:30 | 51.72539 | 21.70398 | 20382 ft | 309 kts | 336° |
| 2026-04-21 13:30 | 51.74421 | 21.68738 | 20064 ft | 305 kts | 342° |
| 2026-04-21 13:31 | 51.76421 | 21.67922 | 19901 ft | 293 kts | 355° |
| 2026-04-21 13:31 | 51.78454 | 21.67385 | 19704 ft | 300 kts | 355° |
| 2026-04-21 13:31 | 51.80516 | 21.66837 | 19518 ft | 308 kts | 355° |
| 2026-04-21 13:31 | 51.82671 | 21.66245 | 19302 ft | 312 kts | 355° |
| 2026-04-21 13:32 | 51.84776 | 21.65650 | 19083 ft | 310 kts | 355° |
| 2026-04-21 13:32 | 51.86890 | 21.65044 | 18866 ft | 307 kts | 355° |
| 2026-04-21 13:32 | 51.88991 | 21.64438 | 18653 ft | 305 kts | 355° |
| 2026-04-21 13:32 | 51.91074 | 21.63837 | 18453 ft | 303 kts | 355° |
| 2026-04-21 13:33 | 51.93149 | 21.63240 | 18219 ft | 302 kts | 355° |
| 2026-04-21 13:33 | 51.95211 | 21.62650 | 17991 ft | 300 kts | 355° |
| 2026-04-21 13:33 | 51.97260 | 21.62064 | 17791 ft | 298 kts | 355° |
| 2026-04-21 13:33 | 51.99298 | 21.61480 | 17586 ft | 297 kts | 355° |
| 2026-04-21 13:34 | 52.01328 | 21.60897 | 17401 ft | 296 kts | 354° |
| 2026-04-21 13:34 | 52.03355 | 21.60316 | 17193 ft | 295 kts | 354° |
| 2026-04-21 13:34 | 52.05376 | 21.59735 | 16997 ft | 295 kts | 354° |
| 2026-04-21 13:34 | 52.07400 | 21.59153 | 16781 ft | 295 kts | 354° |
| 2026-04-21 13:35 | 52.09417 | 21.58572 | 16575 ft | 294 kts | 354° |
| 2026-04-21 13:35 | 52.11439 | 21.57988 | 16385 ft | 294 kts | 354° |
| 2026-04-21 13:35 | 52.13456 | 21.57407 | 16196 ft | 294 kts | 354° |
| 2026-04-21 13:35 | 52.15476 | 21.56823 | 15995 ft | 295 kts | 354° |
| 2026-04-21 13:36 | 52.17494 | 21.56239 | 15801 ft | 295 kts | 354° |
| 2026-04-21 13:36 | 52.19516 | 21.55654 | 15610 ft | 295 kts | 354° |
| 2026-04-21 13:36 | 52.21505 | 21.54745 | 15393 ft | 300 kts | 343° |
| 2026-04-21 13:36 | 52.23426 | 21.53400 | 15206 ft | 301 kts | 340° |
| 2026-04-21 13:37 | 52.25328 | 21.51981 | 14990 ft | 301 kts | 340° |
| 2026-04-21 13:37 | 52.27232 | 21.50570 | 14801 ft | 300 kts | 340° |
| 2026-04-21 13:37 | 52.29138 | 21.49187 | 14581 ft | 299 kts | 341° |
| 2026-04-21 13:37 | 52.31016 | 21.47848 | 14391 ft | 298 kts | 341° |
| 2026-04-21 13:38 | 52.32917 | 21.46505 | 14198 ft | 297 kts | 341° |
| 2026-04-21 13:38 | 52.34817 | 21.45164 | 13988 ft | 297 kts | 341° |
| 2026-04-21 13:38 | 52.36718 | 21.43824 | 13777 ft | 297 kts | 341° |
| 2026-04-21 13:38 | 52.38610 | 21.42489 | 13563 ft | 296 kts | 341° |
| 2026-04-21 13:39 | 52.40498 | 21.41154 | 13354 ft | 295 kts | 341° |
| 2026-04-21 13:39 | 52.42377 | 21.39826 | 13143 ft | 293 kts | 341° |
| 2026-04-21 13:39 | 52.44237 | 21.38508 | 12945 ft | 289 kts | 341° |
| 2026-04-21 13:39 | 52.46068 | 21.37209 | 12744 ft | 283 kts | 341° |
| 2026-04-21 13:40 | 52.47861 | 21.35936 | 12564 ft | 277 kts | 341° |
| 2026-04-21 13:40 | 52.49610 | 21.34693 | 12373 ft | 272 kts | 341° |
| 2026-04-21 13:40 | 52.51304 | 21.33343 | 12181 ft | 271 kts | 329° |
| 2026-04-21 13:40 | 52.52619 | 21.31126 | 12050 ft | 270 kts | 314° |
| 2026-04-21 13:41 | 52.53819 | 21.28776 | 11841 ft | 267 kts | 315° |
| 2026-04-21 13:41 | 52.55012 | 21.26473 | 11663 ft | 263 kts | 315° |
| 2026-04-21 13:41 | 52.56182 | 21.24228 | 11503 ft | 260 kts | 315° |
| 2026-04-21 13:41 | 52.57363 | 21.21964 | 11310 ft | 259 kts | 315° |
| 2026-04-21 13:42 | 52.58268 | 21.19388 | 11103 ft | 267 kts | 285° |
| 2026-04-21 13:42 | 52.58293 | 21.16345 | 10980 ft | 268 kts | 265° |
| 2026-04-21 13:42 | 52.58032 | 21.13303 | 10802 ft | 270 kts | 264° |
| 2026-04-21 13:42 | 52.57739 | 21.10228 | 10620 ft | 274 kts | 263° |
| 2026-04-21 13:43 | 52.57440 | 21.07118 | 10426 ft | 274 kts | 263° |
| 2026-04-21 13:43 | 52.57152 | 21.04081 | 10235 ft | 272 kts | 263° |
| 2026-04-21 13:43 | 52.56864 | 21.01009 | 10048 ft | 271 kts | 264° |
| 2026-04-21 13:43 | 52.56581 | 20.97954 | 9848 ft | 269 kts | 264° |
| 2026-04-21 13:44 | 52.56302 | 20.94926 | 9655 ft | 267 kts | 264° |
| 2026-04-21 13:44 | 52.56025 | 20.91918 | 9465 ft | 265 kts | 264° |
| 2026-04-21 13:44 | 52.55751 | 20.88943 | 9275 ft | 262 kts | 264° |
| 2026-04-21 13:44 | 52.55480 | 20.85987 | 9098 ft | 260 kts | 264° |
| 2026-04-21 13:45 | 52.55212 | 20.83072 | 8934 ft | 257 kts | 264° |
| 2026-04-21 13:45 | 52.54944 | 20.80164 | 8764 ft | 256 kts | 264° |
| 2026-04-21 13:45 | 52.54678 | 20.77280 | 8581 ft | 254 kts | 264° |
| 2026-04-21 13:45 | 52.54415 | 20.74433 | 8422 ft | 251 kts | 264° |
| 2026-04-21 13:46 | 52.54152 | 20.71595 | 8249 ft | 250 kts | 264° |
| 2026-04-21 13:46 | 52.53889 | 20.68775 | 8080 ft | 249 kts | 264° |
| 2026-04-21 13:46 | 52.53626 | 20.65960 | 7918 ft | 249 kts | 264° |
| 2026-04-21 13:46 | 52.53366 | 20.63175 | 7761 ft | 250 kts | 264° |
| 2026-04-21 13:47 | 52.53099 | 20.60349 | 7591 ft | 250 kts | 264° |
| 2026-04-21 13:47 | 52.52830 | 20.57525 | 7416 ft | 250 kts | 264° |
| 2026-04-21 13:47 | 52.52565 | 20.54704 | 7257 ft | 250 kts | 264° |
| 2026-04-21 13:47 | 52.52297 | 20.51885 | 7089 ft | 249 kts | 264° |
| 2026-04-21 13:48 | 52.52031 | 20.49083 | 6926 ft | 249 kts | 264° |
| 2026-04-21 13:48 | 52.51763 | 20.46271 | 6667 ft | 250 kts | 264° |
| 2026-04-21 13:48 | 52.51494 | 20.43456 | 6476 ft | 248 kts | 265° |
| 2026-04-21 13:48 | 52.51317 | 20.41613 | 6344 ft | 246 kts | 264° |
| 2026-04-21 13:49 | 52.51054 | 20.38859 | 6153 ft | 243 kts | 264° |
| 2026-04-21 13:49 | 52.50792 | 20.36146 | 5976 ft | 238 kts | 265° |
| 2026-04-21 13:49 | 52.50535 | 20.33477 | 5826 ft | 236 kts | 264° |
| 2026-04-21 13:49 | 52.50277 | 20.30814 | 5664 ft | 237 kts | 264° |
| 2026-04-21 13:50 | 52.50018 | 20.28140 | 5521 ft | 237 kts | 264° |
| 2026-04-21 13:50 | 52.49754 | 20.25451 | 5363 ft | 239 kts | 265° |
| 2026-04-21 13:50 | 52.49487 | 20.22744 | 5186 ft | 241 kts | 264° |
| 2026-04-21 13:50 | 52.48867 | 20.20176 | 4992 ft | 248 kts | 232° |
| 2026-04-21 13:51 | 52.47441 | 20.18683 | 4816 ft | 248 kts | 193° |
| 2026-04-21 13:51 | 52.45751 | 20.18898 | 4685 ft | 245 kts | 154° |
| 2026-04-21 13:51 | 52.44331 | 20.20408 | 4534 ft | 244 kts | 134° |
| 2026-04-21 13:51 | 52.43270 | 20.22544 | 4400 ft | 240 kts | 115° |
| 2026-04-21 13:52 | 52.42640 | 20.25039 | 4097 ft | 238 kts | 101° |
| 2026-04-21 13:52 | 52.42350 | 20.27690 | 3890 ft | 236 kts | 93° |
| 2026-04-21 13:52 | 52.42241 | 20.30337 | 3711 ft | 229 kts | 86° |
| 2026-04-21 13:52 | 52.42268 | 20.32883 | 3528 ft | 217 kts | 83° |
| 2026-04-21 13:53 | 52.42381 | 20.35281 | 3375 ft | 206 kts | 79° |
| 2026-04-21 13:53 | 52.42566 | 20.37549 | 3198 ft | 195 kts | 78° |
| 2026-04-21 13:53 | 52.42754 | 20.39625 | 3076 ft | 178 kts | 76° |
| 2026-04-21 13:53 | 52.42932 | 20.41564 | 2985 ft | 164 kts | 76° |
| 2026-04-21 13:54 | 52.43101 | 20.43395 | 2814 ft | 163 kts | 76° |
| 2026-04-21 13:54 | 52.43270 | 20.45210 | 2599 ft | 163 kts | 76° |
| 2026-04-21 13:54 | 52.43436 | 20.47028 | 2378 ft | 158 kts | 77° |
| 2026-04-21 13:54 | 52.43591 | 20.48735 | 2161 ft | 145 kts | 75° |
| 2026-04-21 13:55 | 52.43741 | 20.50338 | 1972 ft | 142 kts | 75° |
| 2026-04-21 13:55 | 52.43890 | 20.51950 | 1779 ft | 144 kts | 76° |
| 2026-04-21 13:55 | 52.44040 | 20.53583 | 1569 ft | 144 kts | 75° |
| 2026-04-21 13:55 | 52.44187 | 20.55168 | 1366 ft | 139 kts | 76° |
| 2026-04-21 13:56 | 52.44333 | 20.56737 | 1181 ft | 141 kts | 76° |
| 2026-04-21 13:56 | 52.44480 | 20.58327 | 993 ft | 141 kts | 76° |
| 2026-04-21 13:56 | 52.44630 | 20.59914 | 817 ft | 141 kts | 75° |
| 2026-04-21 13:56 | 52.44776 | 20.61499 | 611 ft | 139 kts | 75° |
| 2026-04-21 13:57 | 52.44921 | 20.63050 | 409 ft | 137 kts | 77° |
| 2026-04-21 13:57 | 52.45061 | 20.64549 | 336 ft | 121 kts | 80° |
| 2026-04-21 13:57 | 52.45158 | 20.65570 | 338 ft | 60 kts | 81° |
| 2026-04-21 13:57 | 52.45189 | 20.65931 | 338 ft | 13 kts | 97° |
| 2026-04-21 13:58 | 52.45124 | 20.66009 | 337 ft | 12 kts | 160° |
| 2026-04-21 13:58 | 52.45047 | 20.66057 | 337 ft | 12 kts | 160° |
| 2026-04-21 13:58 | 52.44971 | 20.66103 | 335 ft | 11 kts | 160° |
| 2026-04-21 13:58 | 52.44901 | 20.66133 | 336 ft | 10 kts | 184° |
| 2026-04-21 13:59 | 52.44864 | 20.66053 | 337 ft | 10 kts | 262° |
| 2026-04-21 13:59 | 52.44854 | 20.65947 | 337 ft | 9 kts | 261° |
| 2026-04-21 13:59 | 52.44844 | 20.65845 | 337 ft | 9 kts | 261° |
| 2026-04-21 13:59 | 52.44835 | 20.65745 | 333 ft | 9 kts | 261° |
| 2026-04-21 14:00 | 52.44826 | 20.65642 | 337 ft | 10 kts | 262° |
| 2026-04-21 14:00 | 52.44817 | 20.65533 | 335 ft | 10 kts | 261° |
| 2026-04-21 14:00 | 52.44807 | 20.65426 | 334 ft | 9 kts | 261° |
| 2026-04-21 14:00 | 52.44796 | 20.65323 | 337 ft | 9 kts | 261° |
| 2026-04-21 14:01 | 52.44787 | 20.65222 | 337 ft | 9 kts | 261° |
| 2026-04-21 14:01 | 52.44778 | 20.65125 | 333 ft | 9 kts | 262° |
| 2026-04-21 14:01 | 52.44767 | 20.65055 | 337 ft | 4 kts | 224° |
| 2026-04-21 14:01 | 52.44739 | 20.65032 | 335 ft | 3 kts | 206° |
| 2026-04-21 14:02 | 52.44727 | 20.65022 | 337 ft | 1 kts | 206° |
| 2026-04-21 14:02 | 52.44721 | 20.65018 | 334 ft | 0 kts | 206° |